Time;durP1;ratioP1;P1;durP2;ratioP2;P2;SDS_P1;SDS_P2;PMS_P1;PMS_P2;Temp;Humidity;BMP_temperature;BMP_pressure;BME280_temperature;BME280_humidity;BME280_pressure;Samples;Min_cycle;Max_cycle;Signal;HPM_P1;HPM_P2
2022/09/10 00:04:33;;;;;;;0.40;0.40;;;;;;;-145.16;100.00;76894.73;645177;217;32421;-73
2022/09/10 00:10:14;;;;;;;0.60;0.60;;;;;;;-145.16;100.00;76898.77;645177;218;32418;-73
2022/09/10 00:15:57;;;;;;;0.10;0.10;;;;;;;-145.16;100.00;76893.73;645183;217;34363;-73
2022/09/10 00:21:38;;;;;;;4.00;1.80;;;;;;;-145.16;100.00;76897.76;645177;218;34326;-73
2022/09/10 00:27:19;;;;;;;0.30;0.30;;;;;;;-145.16;100.00;76886.69;645152;217;43057;-72
2022/09/10 00:33:00;;;;;;;4.70;1.12;;;;;;;-145.16;100.00;76914.87;653748;217;34353;-73
2022/09/10 00:38:45;;;;;;;0.10;0.10;;;;;;;-145.16;100.00;76884.67;645173;217;32326;-73
2022/09/10 00:44:27;;;;;;;0.10;0.10;;;;;;;-145.16;100.00;76924.94;645246;217;35292;-73
2022/09/10 00:50:11;;;;;;;0.50;0.50;;;;;;;-145.16;100.00;76944.06;645016;217;32429;-72
2022/09/10 00:55:54;;;;;;;1.58;0.90;;;;;;;-145.16;100.00;77007.48;653719;217;35323;-73
2022/09/10 01:01:36;;;;;;;0.20;0.20;;;;;;;-145.16;100.00;76973.25;653696;217;32358;-73
2022/09/10 01:07:20;;;;;;;0.10;0.10;;;;;;;-145.16;100.00;76961.17;645087;217;35581;-73
2022/09/10 01:13:01;;;;;;;0.10;0.10;;;;;;;-145.16;100.00;76965.20;653687;217;32383;-73
2022/09/10 01:18:43;;;;;;;2.20;1.10;;;;;;;-145.16;100.00;76967.20;645237;217;35293;-72
2022/09/10 01:24:24;;;;;;;0.10;0.10;;;;;;;-145.16;100.00;76961.17;645234;218;34282;-72
2022/09/10 01:30:36;;;;;;;0.15;0.15;;;;;;;-145.16;100.00;76968.22;653675;217;32398;-72
2022/09/10 01:36:19;;;;;;;0.90;0.60;;;;;;;-145.16;100.00;76982.31;645172;217;32367;-73
2022/09/10 01:41:59;;;;;;;0.10;0.10;;;;;;;-145.16;100.00;76959.16;645176;217;32371;-73
2022/09/10 01:47:56;;;;;;;0.40;0.40;;;;;;;-145.16;100.00;76969.22;653696;217;32349;-73
2022/09/10 01:53:38;;;;;;;0.10;0.10;;;;;;;-145.16;100.00;76963.19;645179;217;33629;-73
2022/09/10 01:59:22;;;;;;;0.20;0.20;;;;;;;-145.16;100.00;76969.22;653695;218;32351;-73
2022/09/10 02:05:05;;;;;;;2.50;2.33;;;;;;;-145.16;100.00;76979.29;645170;217;32525;-73
2022/09/10 02:10:45;;;;;;;0.63;0.63;;;;;;;-145.16;100.00;76955.13;653704;217;33628;-73
2022/09/10 02:16:29;;;;;;;0.70;0.70;;;;;;;-145.16;100.00;76943.05;653663;217;32412;-73
2022/09/10 02:22:14;;;;;;;2.67;2.03;;;;;;;-145.16;100.00;76973.25;645068;217;32390;-73
2022/09/10 02:27:55;;;;;;;3.45;0.70;;;;;;;-145.16;100.00;76957.14;645246;217;34891;-73
2022/09/10 02:33:37;;;;;;;0.80;0.80;;;;;;;-145.16;100.00;76931.98;653675;217;43090;-73
2022/09/10 02:39:18;;;;;;;0.20;0.20;;;;;;;-145.16;100.00;76917.89;645200;217;42659;-73
2022/09/10 02:45:00;;;;;;;0.20;0.20;;;;;;;-145.16;100.00;76903.80;645169;217;53778;-72
2022/09/10 02:50:43;;;;;;;0.27;0.27;;;;;;;-145.16;100.00;76895.74;645057;218;36307;-73
2022/09/10 02:56:24;;;;;;;1.55;1.45;;;;;;;-145.16;100.00;76940.03;645239;217;34330;-72
2022/09/10 03:02:06;;;;;;;1.08;0.98;;;;;;;-145.16;100.00;76969.22;653668;216;32429;-73
2022/09/10 03:07:47;;;;;;;2.60;2.00;;;;;;;-145.16;100.00;76921.91;645183;217;33424;-73
2022/09/10 03:13:29;;;;;;;0.90;0.57;;;;;;;-145.16;100.00;76887.69;645180;217;32623;-73
2022/09/10 03:19:11;;;;;;;1.90;1.67;;;;;;;-145.16;100.00;76896.75;653692;217;32385;-73
2022/09/10 03:24:53;;;;;;;2.35;2.00;;;;;;;-145.16;100.00;76911.84;653679;216;43176;-73
2022/09/10 03:30:35;;;;;;;1.20;0.80;;;;;;;-145.16;100.00;76873.59;645163;217;33421;-73
2022/09/10 03:36:14;;;;;;;1.10;0.80;;;;;;;-145.16;100.00;76850.45;645179;217;32718;-72
2022/09/10 03:41:57;;;;;;;2.33;1.98;;;;;;;-145.16;100.00;76868.56;645139;217;32441;-73
2022/09/10 03:47:38;;;;;;;8.05;7.25;;;;;;;-145.16;100.00;76867.56;645204;217;32363;-73
2022/09/10 03:53:19;;;;;;;2.30;2.10;;;;;;;-145.16;100.00;76854.47;645179;217;32486;-73
2022/09/10 03:59:00;;;;;;;2.03;1.65;;;;;;;-145.16;100.00;76856.48;645196;217;32432;-73
2022/09/10 04:04:42;;;;;;;1.65;1.55;;;;;;;-145.16;100.00;76811.19;645158;218;32391;-73
2022/09/10 04:10:24;;;;;;;0.73;0.73;;;;;;;-145.16;100.00;76769.92;645182;217;32347;-73
2022/09/10 04:16:05;;;;;;;2.23;1.87;;;;;;;-145.16;100.00;76791.06;653691;217;32368;-73
2022/09/10 04:21:47;;;;;;;1.00;1.00;;;;;;;-145.16;100.00;76775.96;645199;218;34422;-73
2022/09/10 04:27:29;;;;;;;4.22;3.30;;;;;;;-145.16;100.00;76789.05;645245;217;33525;-73
2022/09/10 04:33:11;;;;;;;4.50;3.50;;;;;;;-145.16;100.00;76776.97;653641;217;32330;-73
2022/09/10 04:38:53;;;;;;;2.40;2.20;;;;;;;-145.16;100.00;76747.78;644089;217;32502;-73
2022/09/10 04:44:34;;;;;;;2.50;1.27;;;;;;;-145.16;100.00;76732.68;653686;217;34613;-73
2022/09/10 04:50:17;;;;;;;1.00;1.00;;;;;;;-145.16;100.00;76739.73;645014;218;32355;-72
2022/09/10 04:55:59;;;;;;;2.08;1.40;;;;;;;-145.16;100.00;76725.63;645171;217;32399;-72
2022/09/10 05:01:41;;;;;;;1.92;1.75;;;;;;;-145.16;100.00;76728.66;645169;218;43055;-72
2022/09/10 05:07:22;;;;;;;2.42;2.22;;;;;;;-145.16;100.00;76741.73;645188;217;36287;-74
2022/09/10 05:13:03;;;;;;;0.60;0.60;;;;;;;-145.16;100.00;76700.47;645182;217;32689;-73
2022/09/10 05:18:45;;;;;;;3.53;2.25;;;;;;;-145.16;100.00;76728.66;645180;217;32475;-73
2022/09/10 05:24:26;;;;;;;0.70;0.70;;;;;;;-145.16;100.00;76670.28;645177;217;32472;-73
2022/09/10 05:30:08;;;;;;;3.50;2.50;;;;;;;-145.16;100.00;76618.95;645146;217;32671;-73
2022/09/10 05:35:51;;;;;;;0.10;0.10;;;;;;;-145.16;100.00;76560.57;653715;217;35330;-73
2022/09/10 05:41:32;;;;;;;0.85;0.85;;;;;;;-145.16;100.00;76533.39;653699;217;32477;-72
2022/09/10 05:47:15;;;;;;;2.20;2.00;;;;;;;-145.16;100.00;76535.41;645063;217;35363;-73
2022/09/10 05:52:57;;;;;;;1.10;0.90;;;;;;;-145.16;100.00;76496.16;645141;217;32373;-73
2022/09/10 05:58:40;;;;;;;1.92;1.83;;;;;;;-145.16;100.00;76516.28;645028;217;32687;-73
2022/09/10 06:04:23;;;;;;;0.60;0.60;;;;;;;-145.16;100.00;76487.09;653694;217;32655;-73
2022/09/10 06:10:04;;;;;;;1.23;0.98;;;;;;;-145.16;100.00;76495.15;645145;218;43170;-73
2022/09/10 06:15:44;;;;;;;0.10;0.10;;;;;;;-145.16;100.00;76482.06;645157;217;32360;-72
2022/09/10 06:21:26;;;;;;;1.57;1.47;;;;;;;-145.16;100.00;76472.00;653688;217;34318;-72
2022/09/10 06:27:08;;;;;;;8.50;2.40;;;;;;;-145.16;100.00;76498.16;645197;217;32412;-73
2022/09/10 06:32:49;;;;;;;0.60;0.60;;;;;;;-145.16;100.00;76482.06;645170;218;43179;-72
2022/09/10 06:38:32;;;;;;;0.10;0.10;;;;;;;-145.16;100.00;76427.72;645173;217;33385;-72
2022/09/10 06:44:12;;;;;;;0.98;0.98;;;;;;;-145.16;100.00;76377.39;645233;217;36573;-72
2022/09/10 06:49:55;;;;;;;0.70;0.70;;;;;;;-145.16;100.00;76281.78;645033;217;32359;-72
2022/09/10 06:55:36;;;;;;;1.80;1.62;;;;;;;-145.16;100.00;76376.39;645145;217;32503;-73
2022/09/10 07:01:17;;;;;;;2.22;2.12;;;;;;;-145.16;100.00;76439.80;649549;217;32403;-72
2022/09/10 07:07:01;;;;;;;3.58;2.75;;;;;;;-145.16;100.00;76477.03;642524;217;32330;-73
2022/09/10 07:12:43;;;;;;;1.55;1.45;;;;;;;-145.16;100.00;76527.36;654284;217;32447;-72
2022/09/10 07:18:24;;;;;;;1.75;1.65;;;;;;;-145.16;100.00;76534.40;645179;217;32397;-72
2022/09/10 07:24:05;;;;;;;2.70;2.03;;;;;;;-145.16;100.00;76528.36;641100;216;43252;-73
2022/09/10 07:29:46;;;;;;;1.77;1.67;;;;;;;-145.16;100.00;76460.92;645197;217;34334;-73
2022/09/10 07:35:28;;;;;;;2.12;1.30;;;;;;;-145.16;100.00;76385.45;645167;217;32378;-73
2022/09/10 07:41:10;;;;;;;0.30;0.30;;;;;;;-145.16;100.00;76246.56;650108;217;43045;-73
2022/09/10 07:46:51;;;;;;;1.35;1.15;;;;;;;-145.16;100.00;76297.89;653680;217;32406;-72
2022/09/10 07:52:32;;;;;;;0.50;0.50;;;;;;;-145.16;100.00;76343.17;645175;217;32365;-73
2022/09/10 07:58:14;;;;;;;0.55;0.55;;;;;;;-145.16;100.00;76438.78;645223;217;32380;-73
2022/09/10 08:03:56;;;;;;;0.98;0.82;;;;;;;-145.16;100.00;76510.25;645197;217;32318;-71
2022/09/10 08:09:37;;;;;;;13.25;2.65;;;;;;;-145.16;100.00;76405.58;645172;217;32464;-73
2022/09/10 08:15:19;;;;;;;0.47;0.47;;;;;;;-145.16;100.00;76404.56;645163;217;32405;-73
2022/09/10 08:21:00;;;;;;;1.33;1.33;;;;;;;-145.16;100.00;76448.84;645135;217;32373;-73
2022/09/10 08:26:42;;;;;;;0.60;0.60;;;;;;;-145.16;100.00;76288.83;645159;217;32415;-73
2022/09/10 08:32:24;;;;;;;0.60;0.60;;;;;;;-145.16;100.00;76260.65;645151;217;32357;-71
2022/09/10 08:38:05;;;;;;;0.30;0.30;;;;;;;-145.16;100.00;76339.15;645168;218;32411;-70
2022/09/10 08:43:46;;;;;;;1.42;1.20;;;;;;;-145.16;100.00;76467.97;653665;216;32378;-71
2022/09/10 08:49:28;;;;;;;0.80;0.80;;;;;;;-145.16;100.00;76514.27;645147;217;32386;-71
2022/09/10 08:55:09;;;;;;;0.20;0.20;;;;;;;-145.16;100.00;76458.91;641118;217;32568;-73
2022/09/10 09:00:50;;;;;;;0.60;0.60;;;;;;;-145.16;100.00;76217.38;645152;217;32374;-73
2022/09/10 09:06:32;;;;;;;0.22;0.22;;;;;;;-145.16;100.00;75796.73;645168;217;43094;-71
2022/09/10 09:12:14;;;;;;;0.57;0.57;;;;;;;-145.16;100.00;76247.56;653674;217;32353;-71
2022/09/10 09:17:58;;;;;;;0.20;0.20;;;;;;;-145.16;100.00;76318.02;645157;218;32352;-71
2022/09/10 09:23:40;;;;;;;0.80;0.80;;;;;;;-145.16;100.00;76014.09;653691;217;32325;-71
2022/09/10 09:29:22;;;;;;;0.40;0.40;;;;;;;-145.16;100.00;76127.81;645174;217;32356;-71
2022/09/10 09:35:03;;;;;;;0.30;0.30;;;;;;;-145.16;100.00;76382.42;645125;217;32719;-71
2022/09/10 09:40:45;;;;;;;0.30;0.30;;;;;;;-145.16;100.00;76452.88;645093;217;32360;-71
2022/09/10 09:46:26;;;;;;;0.30;0.30;;;;;;;-145.16;100.00;76528.36;645108;217;43066;-73
2022/09/10 09:52:09;;;;;;;0.20;0.20;;;;;;;-145.16;100.00;76542.45;653692;217;32365;-73
2022/09/10 09:57:50;;;;;;;0.20;0.20;;;;;;;-145.16;100.00;76563.59;645180;218;32356;-71
2022/09/10 10:03:49;;;;;;;0.35;0.35;;;;;;;-145.16;100.00;76603.84;645199;218;32330;-73
2022/09/10 10:09:29;;;;;;;0.60;0.60;;;;;;;-145.16;100.00;76665.24;646531;217;32398;-73
2022/09/10 10:15:12;;;;;;;0.80;0.45;;;;;;;-145.16;100.00;76664.23;645025;217;32331;-73
2022/09/10 10:20:54;;;;;;;0.20;0.20;;;;;;;-145.16;100.00;76579.69;645150;217;32413;-74
2022/09/10 10:26:43;;;;;;;0.28;0.28;;;;;;;-145.16;100.00;76484.08;645219;217;32408;-73
2022/09/10 10:32:29;;;;;;;0.50;0.50;;;;;;;-145.16;100.00;76606.86;645168;217;32402;-73
2022/09/10 10:38:11;;;;;;;1.00;1.00;;;;;;;-145.16;100.00;76713.55;645181;217;32418;-71
2022/09/10 10:43:52;;;;;;;0.25;0.25;;;;;;;-145.16;100.00;76738.72;645167;217;32484;-73
2022/09/10 10:49:33;;;;;;;0.32;0.32;;;;;;;-145.16;100.00;76771.94;645183;218;32356;-73
2022/09/10 10:55:15;;;;;;;0.30;0.30;;;;;;;-145.16;100.00;76749.79;645169;217;32392;-70
2022/09/10 11:01:00;;;;;;;0.37;0.37;;;;;;;-145.16;100.00;76737.72;645158;217;32311;-73
2022/09/10 11:06:41;;;;;;;0.22;0.22;;;;;;;-145.16;100.00;76698.45;653678;217;32377;-74
2022/09/10 11:12:24;;;;;;;0.90;0.90;;;;;;;-145.16;100.00;76625.98;645167;217;32373;-72
2022/09/10 11:18:06;;;;;;;0.20;0.20;;;;;;;-145.16;100.00;76643.09;645185;218;32602;-71
2022/09/10 11:23:50;;;;;;;0.30;0.30;;;;;;;-145.16;100.00;76671.28;645180;217;32417;-71
2022/09/10 11:29:31;;;;;;;0.50;0.50;;;;;;;-145.16;100.00;76652.16;645184;217;32314;-71
2022/09/10 11:35:14;;;;;;;7.90;0.70;;;;;;;-145.16;100.00;76655.18;646174;217;32317;-71
2022/09/10 11:41:05;;;;;;;0.30;0.30;;;;;;;-145.16;100.00;76671.28;645196;217;32351;-71
2022/09/10 11:46:48;;;;;;;0.70;0.70;;;;;;;-145.16;100.00;76665.24;645052;217;32397;-73
2022/09/10 11:52:30;;;;;;;0.43;0.43;;;;;;;-145.16;100.00;76576.67;645133;217;32378;-73
2022/09/10 11:58:16;;;;;;;1.20;1.10;;;;;;;-145.16;100.00;76685.38;644997;217;32377;-71
2022/09/10 12:03:59;;;;;;;1.12;1.02;;;;;;;-145.16;100.00;76686.38;645174;217;32412;-72
2022/09/10 12:09:40;;;;;;;0.45;0.45;;;;;;;-145.16;100.00;76592.77;645172;217;32370;-73
2022/09/10 12:15:22;;;;;;;0.40;0.40;;;;;;;-145.16;100.00;76531.38;645166;218;32305;-74
2022/09/10 12:21:04;;;;;;;1.92;1.83;;;;;;;-145.16;100.00;76386.45;645155;217;32407;-75
2022/09/10 12:26:46;;;;;;;1.00;1.00;;;;;;;-145.16;100.00;76500.18;653674;217;32390;-71
2022/09/10 12:32:38;;;;;;;0.32;0.32;;;;;;;-145.16;100.00;76543.45;645162;217;43022;-75
2022/09/10 12:35:50;;;;;;;0.20;0.20;;;;;;;-145.16;100.00;76568.62;635997;226;22684;-74
2022/09/10 12:42:08;;;;;;;0.40;0.40;;;;;;;-145.16;100.00;76582.71;645181;217;32366;-75
2022/09/10 12:48:08;;;;;;;0.60;0.60;;;;;;;-145.16;100.00;76591.77;645185;217;32343;-75
2022/09/10 12:53:50;;;;;;;0.30;0.30;;;;;;;-145.16;100.00;76622.97;645157;217;32364;-72
2022/09/10 12:59:35;;;;;;;0.20;0.20;;;;;;;-145.16;100.00;76608.88;645176;217;32313;-72
2022/09/10 13:05:16;;;;;;;0.37;0.37;;;;;;;-145.16;100.00;76708.52;653739;217;32366;-74
2022/09/10 13:10:58;;;;;;;1.00;1.00;;;;;;;-145.16;100.00;76721.61;645177;217;32363;-72
2022/09/10 13:16:44;;;;;;;1.08;1.08;;;;;;;-145.16;100.00;76727.65;653687;218;32330;-75
2022/09/10 13:23:01;;;;;;;0.90;0.90;;;;;;;-145.16;100.00;76750.80;645174;217;32370;-74
2022/09/10 13:28:51;;;;;;;0.50;0.50;;;;;;;-145.16;100.00;76674.30;645021;218;32377;-74
2022/09/10 13:34:33;;;;;;;0.50;0.50;;;;;;;-145.16;100.00;76630.02;645818;217;32532;-72
2022/09/10 13:40:16;;;;;;;0.30;0.30;;;;;;;-145.16;100.00;76575.66;645200;217;32301;-74
2022/09/10 13:46:10;;;;;;;0.95;0.95;;;;;;;-145.16;100.00;76767.91;645180;217;32371;-73
2022/09/10 13:51:53;;;;;;;0.85;0.85;;;;;;;-145.16;100.00;76892.72;650701;217;29359;-74
2022/09/10 13:57:38;;;;;;;0.80;0.80;;;;;;;-145.16;100.00;76931.98;645185;218;32408;-74
2022/09/10 14:03:22;;;;;;;0.40;0.40;;;;;;;-145.16;100.00;76916.88;645033;217;32354;-74
2022/09/10 14:09:04;;;;;;;2.80;0.50;;;;;;;-145.16;100.00;76874.60;653694;217;32310;-74
2022/09/10 14:14:47;;;;;;;0.70;0.70;;;;;;;-145.16;100.00;76824.27;653659;217;43059;-74
2022/09/10 14:20:29;;;;;;;1.70;0.98;;;;;;;-145.16;100.00;76907.82;645166;217;32399;-74
2022/09/10 14:26:11;;;;;;;0.20;0.20;;;;;;;-145.16;100.00;76842.39;645180;217;42995;-73
2022/09/10 14:32:01;;;;;;;0.20;0.20;;;;;;;-145.16;100.00;76845.41;645169;217;32368;-74
2022/09/10 14:37:46;;;;;;;0.50;0.50;;;;;;;-145.16;100.00;76721.61;645174;216;32371;-74
2022/09/10 14:43:30;;;;;;;3.90;0.80;;;;;;;-145.16;100.00;76698.45;645067;217;32320;-74
2022/09/10 14:49:11;;;;;;;0.90;0.90;;;;;;;-145.16;100.00;76738.72;645161;217;32364;-74
2022/09/10 14:54:54;;;;;;;0.20;0.20;;;;;;;-145.16;100.00;76680.34;645157;217;32403;-72
2022/09/10 15:00:34;;;;;;;0.80;0.80;;;;;;;-145.16;100.00;76824.27;645139;217;32721;-74
2022/09/10 15:06:16;;;;;;;2.40;1.40;;;;;;;-145.16;100.00;76778.98;645174;218;32673;-71
2022/09/10 15:11:57;;;;;;;0.45;0.45;;;;;;;-145.16;100.00;76776.97;645170;217;32442;-73
2022/09/10 15:17:40;;;;;;;1.20;1.10;;;;;;;-145.16;100.00;76810.19;645170;217;32430;-72
2022/09/10 15:23:21;;;;;;;2.70;1.20;;;;;;;-145.16;100.00;76801.13;645156;218;32366;-74
2022/09/10 15:29:02;;;;;;;0.80;0.80;;;;;;;-145.16;100.00;76757.84;645154;217;32362;-71
2022/09/10 15:34:44;;;;;;;0.30;0.30;;;;;;;-145.16;100.00;76669.27;653662;217;32364;-74
2022/09/10 15:40:25;;;;;;;0.70;0.70;;;;;;;-145.16;100.00;76769.92;645151;217;32668;-71
2022/09/10 15:46:06;;;;;;;2.20;0.98;;;;;;;-145.16;100.00;76793.08;645183;217;32398;-71
2022/09/10 15:51:48;;;;;;;0.30;0.30;;;;;;;-145.16;100.00;76697.45;653686;217;32373;-71
2022/09/10 15:57:30;;;;;;;0.30;0.30;;;;;;;-145.16;100.00;76737.72;645172;216;32716;-74
2022/09/10 16:03:12;;;;;;;0.37;0.37;;;;;;;-145.16;100.00;76753.81;645150;217;32415;-72
2022/09/10 16:08:56;;;;;;;1.33;1.23;;;;;;;-145.16;100.00;76762.88;645147;217;32402;-74
2022/09/10 16:14:34;;;;;;;0.95;0.93;;;;;;;-145.16;100.00;76775.96;645176;217;32408;-74
2022/09/10 16:20:16;;;;;;;0.60;0.60;;;;;;;-145.16;100.00;76783.01;645164;217;32451;-72
2022/09/10 16:25:57;;;;;;;0.62;0.62;;;;;;;-145.16;100.00;76736.70;645182;217;32383;-74
2022/09/10 16:31:39;;;;;;;0.30;0.30;;;;;;;-145.16;100.00;76687.39;645173;217;43064;-72
2022/09/10 16:37:22;;;;;;;0.77;0.77;;;;;;;-145.16;100.00;76773.95;645169;218;32403;-75
2022/09/10 16:43:02;;;;;;;0.40;0.40;;;;;;;-145.16;100.00;76754.83;645173;217;32378;-74
2022/09/10 16:48:43;;;;;;;0.88;0.88;;;;;;;-145.16;100.00;76824.27;653679;218;32363;-74
2022/09/10 16:54:25;;;;;;;2.42;0.80;;;;;;;-145.16;100.00;76861.52;645161;217;32370;-74
2022/09/10 17:00:07;;;;;;;5.70;0.90;;;;;;;-145.16;100.00;76842.39;653697;217;32352;-72
2022/09/10 17:05:48;;;;;;;1.20;1.20;;;;;;;-145.16;100.00;76873.59;645189;217;32380;-72
2022/09/10 17:11:30;;;;;;;0.30;0.30;;;;;;;-145.16;100.00;76903.80;645168;218;32367;-72
2022/09/10 17:17:12;;;;;;;0.30;0.30;;;;;;;-145.16;100.00;76913.86;645176;218;32356;-72
2022/09/10 17:22:52;;;;;;;0.30;0.30;;;;;;;-145.16;100.00;76923.92;653683;217;32361;-74
2022/09/10 17:28:34;;;;;;;0.30;0.30;;;;;;;-145.16;100.00;76917.89;645162;217;32653;-71
2022/09/10 17:34:15;;;;;;;0.40;0.40;;;;;;;-145.16;100.00;76988.34;645177;218;32412;-74
2022/09/10 17:39:57;;;;;;;0.30;0.30;;;;;;;-145.16;100.00;76987.34;645182;217;32383;-74
2022/09/10 17:45:38;;;;;;;0.75;0.35;;;;;;;-145.16;100.00;77004.45;645185;217;32316;-73
2022/09/10 17:51:19;;;;;;;0.20;0.20;;;;;;;-145.16;100.00;77012.51;645158;217;32731;-73
2022/09/10 17:57:01;;;;;;;0.20;0.20;;;;;;;-145.16;100.00;77041.70;645184;218;32403;-73
2022/09/10 18:02:42;;;;;;;0.20;0.20;;;;;;;-145.16;100.00;77070.89;645140;217;32400;-73
2022/09/10 18:08:24;;;;;;;0.20;0.20;;;;;;;-145.16;100.00;77118.20;645149;216;32367;-73
2022/09/10 18:14:17;;;;;;;0.10;0.10;;;;;;;-145.16;100.00;77147.40;645024;217;32405;-74
2022/09/10 18:19:57;;;;;;;0.20;0.20;;;;;;;-145.16;100.00;77185.65;645179;218;32355;-73
2022/09/10 18:25:42;;;;;;;0.30;0.30;;;;;;;-145.16;100.00;77224.91;653633;217;32379;-74
2022/09/10 18:31:22;;;;;;;1.30;1.20;;;;;;;-145.16;100.00;77262.16;634933;216;32591;-74
2022/09/10 18:37:04;;;;;;;0.20;0.20;;;;;;;-145.16;100.00;77268.20;653667;217;32364;-74
2022/09/10 18:42:46;;;;;;;0.50;0.50;;;;;;;-145.16;100.00;77294.38;645180;217;43101;-74
2022/09/10 18:48:28;;;;;;;0.50;0.50;;;;;;;-145.16;100.00;77313.50;645187;217;32319;-74
2022/09/10 18:54:11;;;;;;;2.50;1.48;;;;;;;-145.16;100.00;77319.54;645000;217;32430;-74
2022/09/10 18:59:53;;;;;;;0.20;0.20;;;;;;;-145.16;100.00;77349.73;653690;217;32392;-74
2022/09/10 19:05:34;;;;;;;0.25;0.25;;;;;;;-145.16;100.00;77379.94;645187;217;32355;-74
2022/09/10 19:11:17;;;;;;;0.28;0.28;;;;;;;-145.16;100.00;77390.01;645171;218;32641;-73
2022/09/10 19:17:01;;;;;;;0.10;0.10;;;;;;;-145.16;100.00;77395.04;645178;217;32321;-74
2022/09/10 19:22:42;;;;;;;0.20;0.20;;;;;;;-145.16;100.00;77413.16;645165;217;32376;-74
2022/09/10 19:28:23;;;;;;;0.13;0.13;;;;;;;-145.16;100.00;77425.24;653672;217;32359;-74
2022/09/10 19:34:05;;;;;;;0.20;0.20;;;;;;;-145.16;100.00;77423.23;645171;218;43111;-73
2022/09/10 19:39:47;;;;;;;0.10;0.10;;;;;;;-145.16;100.00;77451.42;653675;217;43072;-74
2022/09/10 19:45:29;;;;;;;0.10;0.10;;;;;;;-145.16;100.00;77478.60;645162;217;32364;-74
2022/09/10 19:51:10;;;;;;;0.55;0.55;;;;;;;-145.16;100.00;77483.63;645177;217;42936;-74
2022/09/10 19:56:51;;;;;;;0.20;0.20;;;;;;;-145.16;100.00;77482.63;645171;217;32426;-74
2022/09/10 20:02:32;;;;;;;0.30;0.30;;;;;;;-145.16;100.00;77499.74;645188;217;32454;-73
2022/09/10 20:08:14;;;;;;;0.10;0.10;;;;;;;-145.16;100.00;77487.66;653690;217;32386;-73
2022/09/10 20:14:02;;;;;;;0.20;0.20;;;;;;;-145.16;100.00;77500.75;653692;217;32362;-74
2022/09/10 20:19:43;;;;;;;0.10;0.10;;;;;;;-145.16;100.00;77492.70;645189;217;32402;-73
2022/09/10 20:25:25;;;;;;;0.70;0.70;;;;;;;-145.16;100.00;77501.75;653688;217;32370;-74
2022/09/10 20:31:07;;;;;;;0.13;0.13;;;;;;;-145.16;100.00;77510.81;645167;217;32664;-74
2022/09/10 20:36:50;;;;;;;0.10;0.10;;;;;;;-145.16;100.00;77507.80;643930;217;32301;-74
2022/09/10 20:42:34;;;;;;;0.57;0.50;;;;;;;-145.16;100.00;77531.95;645015;217;32361;-74
2022/09/10 20:48:15;;;;;;;0.20;0.20;;;;;;;-145.16;100.00;77534.98;641702;217;34302;-73
2022/09/10 20:54:04;;;;;;;0.20;0.20;;;;;;;-145.16;100.00;77532.97;644483;217;43020;-73
2022/09/10 20:59:46;;;;;;;0.20;0.20;;;;;;;-145.16;100.00;77541.02;653659;217;43118;-74
2022/09/10 21:05:27;;;;;;;0.20;0.20;;;;;;;-145.16;100.00;77553.10;646620;217;43233;-73
2022/09/10 21:11:11;;;;;;;0.22;0.22;;;;;;;-145.16;100.00;77567.20;650784;217;32617;-74
2022/09/10 21:16:52;;;;;;;0.10;0.10;;;;;;;-145.16;100.00;77567.20;653685;217;32353;-74
2022/09/10 21:22:33;;;;;;;0.20;0.20;;;;;;;-145.16;100.00;77566.19;645237;217;35313;-73
2022/09/10 21:28:14;;;;;;;0.50;0.50;;;;;;;-145.16;100.00;77594.38;645166;217;32745;-73
2022/09/10 21:33:56;;;;;;;0.20;0.20;;;;;;;-145.16;100.00;77603.44;653666;217;32418;-73
2022/09/10 21:39:39;;;;;;;0.25;0.25;;;;;;;-145.16;100.00;77603.44;643771;217;43043;-74
2022/09/10 21:45:21;;;;;;;0.10;0.10;;;;;;;-145.16;100.00;77601.42;644502;217;32581;-73
2022/09/10 21:51:04;;;;;;;0.10;0.10;;;;;;;-145.16;100.00;77618.55;645033;218;43429;-73
2022/09/10 21:56:43;;;;;;;0.10;0.10;;;;;;;-145.16;100.00;77622.57;653681;217;32694;-74
2022/09/10 22:02:25;;;;;;;0.10;0.10;;;;;;;-145.16;100.00;77624.58;653683;217;32353;-74
2022/09/10 22:08:06;;;;;;;0.20;0.20;;;;;;;-145.16;100.00;77635.66;645170;218;32420;-73
2022/09/10 22:13:48;;;;;;;0.10;0.10;;;;;;;-145.16;100.00;77653.78;645166;217;32437;-74
2022/09/10 22:19:29;;;;;;;0.17;0.17;;;;;;;-145.16;100.00;77661.83;653754;217;34339;-74
2022/09/10 22:25:11;;;;;;;0.10;0.10;;;;;;;-145.16;100.00;77674.92;645179;218;32401;-74
2022/09/10 22:30:52;;;;;;;0.10;0.10;;;;;;;-145.16;100.00;77684.99;645164;217;32382;-74
2022/09/10 22:36:34;;;;;;;0.10;0.10;;;;;;;-145.16;100.00;77743.39;645170;217;32373;-74
2022/09/10 22:42:15;;;;;;;0.13;0.13;;;;;;;-145.16;100.00;77715.20;645187;217;32387;-74
2022/09/10 22:47:56;;;;;;;0.20;0.20;;;;;;;-145.16;100.00;77780.64;645183;217;32438;-74
2022/09/10 22:53:39;;;;;;;0.10;0.10;;;;;;;-145.16;100.00;77799.77;645185;217;53798;-75
2022/09/10 22:59:19;;;;;;;0.17;0.17;;;;;;;-145.16;100.00;77803.80;645183;217;32430;-74
2022/09/10 23:05:00;;;;;;;0.20;0.20;;;;;;;-145.16;100.00;77779.63;645187;217;32359;-74
2022/09/10 23:10:42;;;;;;;0.10;0.10;;;;;;;-145.16;100.00;77781.64;645195;217;32399;-74
2022/09/10 23:16:24;;;;;;;0.10;0.10;;;;;;;-145.16;100.00;77780.64;645181;218;32432;-75
2022/09/10 23:22:05;;;;;;;0.10;0.10;;;;;;;-145.16;100.00;77771.58;653703;217;32379;-74
2022/09/10 23:27:50;;;;;;;0.10;0.10;;;;;;;-145.16;100.00;77785.67;653634;218;34334;-74
2022/09/10 23:33:30;;;;;;;0.10;0.10;;;;;;;-145.16;100.00;77787.69;649063;217;32386;-75
2022/09/10 23:39:12;;;;;;;0.10;0.10;;;;;;;-145.16;100.00;77795.74;645176;217;32378;-74
2022/09/10 23:44:54;;;;;;;0.30;0.30;;;;;;;-145.16;100.00;77793.73;653690;217;35282;-74
2022/09/10 23:50:35;;;;;;;0.30;0.30;;;;;;;-145.16;100.00;77798.77;645174;217;32400;-75
2022/09/10 23:56:16;;;;;;;0.10;0.10;;;;;;;-145.16;100.00;77817.89;645178;217;32434;-73
